Blountsville, Alabama
Current Conditions -  °F | °C
As of 12:35 PM on Saturday 20 Dec 2014 (Local Time) from KCMD Reporting Station
Clear Clear  
Wind Chill: 50°   Ceiling: Unl
Heat Index: 50°   Visibility: 10mi
Dew Point: 34°   Wind: 6mph
Humidity: 54%   Direction: 10°N
Pressure: 30.19"   Gusts: NA
Location:  34.08°N, 86.59°W
Report Text: KCMD 201835Z AUTO 01005KT 10SM CLR 10/01 A3019 RMK AO2 T01000010
Loading
Personal Weather Stations






























Interactive Weather Map New forecast layout! Learn more

10-Day Weather Forecast

Advertisements
Track Severe Weather on mobile